Time;durP1;ratioP1;P1;durP2;ratioP2;P2;SDS_P1;SDS_P2;PMS_P1;PMS_P2;Temp;Humidity;BMP_temperature;BMP_pressure;BME280_temperature;BME280_humidity;BME280_pressure;Samples;Min_cycle;Max_cycle;Signal;HPM_P1;HPM_P2
2021/01/17 00:00:20;;;;;;;20.25;13.27;;;-3.00;93.50;;;;;;4998185;28;20398;-84
2021/01/17 00:02:47;;;;;;;22.20;13.63;;;-3.00;93.70;;;;;;4998444;28;20022;-84
2021/01/17 00:05:15;;;;;;;20.45;12.73;;;-2.90;93.80;;;;;;4998433;28;20027;-83
2021/01/17 00:07:41;;;;;;;18.83;12.57;;;-3.10;93.90;;;;;;4998201;28;20030;-83
2021/01/17 00:10:09;;;;;;;22.73;13.57;;;-3.10;94.20;;;;;;4998121;28;20081;-84
2021/01/17 00:12:36;;;;;;;19.05;12.90;;;-3.10;94.40;;;;;;4997705;28;20080;-83
2021/01/17 00:15:05;;;;;;;20.00;13.00;;;-3.00;94.40;;;;;;4998097;28;20092;-83
2021/01/17 00:17:31;;;;;;;21.15;13.52;;;-3.10;94.50;;;;;;4997961;28;20030;-83
2021/01/17 00:19:57;;;;;;;20.17;13.50;;;-3.00;94.20;;;;;;4996773;28;20022;-85
2021/01/17 00:22:22;;;;;;;21.88;13.65;;;-3.00;94.10;;;;;;4998142;28;20117;-82
2021/01/17 00:24:48;;;;;;;22.45;13.52;;;-3.00;94.40;;;;;;4998444;28;20062;-83
2021/01/17 00:27:14;;;;;;;22.33;14.13;;;-3.00;94.20;;;;;;4998689;28;20030;-83
2021/01/17 00:29:40;;;;;;;21.02;13.15;;;-3.00;94.00;;;;;;4999156;28;20529;-84
2021/01/17 00:32:10;;;;;;;19.08;13.07;;;-3.00;93.90;;;;;;4997761;28;20061;-84
2021/01/17 00:34:36;;;;;;;21.15;13.38;;;-3.00;93.80;;;;;;4997581;28;20430;-82
2021/01/17 00:37:02;;;;;;;21.23;13.75;;;-3.00;93.70;;;;;;4998350;28;20027;-83
2021/01/17 00:39:28;;;;;;;21.08;13.98;;;-3.00;93.70;;;;;;4997469;28;20351;-83
2021/01/17 00:41:54;;;;;;;21.17;13.23;;;-3.00;93.80;;;;;;4997347;28;20026;-83
2021/01/17 00:44:19;;;;;;;20.52;14.10;;;-3.00;93.50;;;;;;4997659;28;20466;-83
2021/01/17 00:46:45;;;;;;;21.27;14.63;;;-3.00;93.70;;;;;;4997517;28;20030;-83
2021/01/17 00:49:11;;;;;;;21.52;14.25;;;-3.00;93.50;;;;;;4997636;28;20062;-83
2021/01/17 00:51:45;;;;;;;24.45;14.50;;;-3.00;93.60;;;;;;4997767;28;20070;-83
2021/01/17 00:54:12;;;;;;;22.05;14.23;;;-3.00;93.50;;;;;;4997526;28;20077;-82
2021/01/17 00:56:38;;;;;;;20.83;14.30;;;-3.00;93.50;;;;;;4997180;28;20042;-83
2021/01/17 00:59:09;;;;;;;22.45;14.52;;;-3.00;93.30;;;;;;4997454;28;20474;-82
2021/01/17 01:01:46;;;;;;;21.50;14.20;;;-3.00;93.60;;;;;;4997517;28;20129;-84
2021/01/17 01:04:15;;;;;;;25.92;14.70;;;-3.00;93.50;;;;;;4997589;28;20030;-83
2021/01/17 01:06:41;;;;;;;24.55;15.20;;;-3.00;93.40;;;;;;4997856;28;20022;-83
2021/01/17 01:09:12;;;;;;;21.70;13.93;;;-3.00;93.60;;;;;;4997567;28;20041;-85
2021/01/17 01:11:39;;;;;;;22.58;15.32;;;-3.00;93.70;;;;;;4996801;28;20661;-84
2021/01/17 01:14:05;;;;;;;22.92;14.32;;;-3.00;93.80;;;;;;4997708;28;20037;-83
2021/01/17 01:16:31;;;;;;;22.95;15.30;;;-3.00;93.70;;;;;;4997258;28;20030;-83
2021/01/17 01:18:57;;;;;;;23.40;15.13;;;-3.00;93.90;;;;;;4997071;28;20022;-84
2021/01/17 01:21:34;;;;;;;23.10;15.10;;;-2.90;93.70;;;;;;4997058;28;20032;-82
2021/01/17 01:24:00;;;;;;;22.08;15.05;;;-2.90;93.60;;;;;;4996987;28;20447;-83
2021/01/17 01:26:27;;;;;;;22.40;15.00;;;-3.00;93.50;;;;;;4996752;28;20025;-83
2021/01/17 01:28:55;;;;;;;23.08;14.85;;;-3.00;93.70;;;;;;4997437;28;20019;-83
2021/01/17 01:31:23;;;;;;;22.90;14.82;;;-2.90;93.60;;;;;;4996918;28;20030;-83
2021/01/17 01:33:49;;;;;;;22.50;14.82;;;-2.90;93.50;;;;;;4997465;28;20030;-82
2021/01/17 01:36:29;;;;;;;24.55;14.65;;;-3.00;93.30;;;;;;4996922;28;20145;-84
2021/01/17 01:38:56;;;;;;;26.10;15.07;;;-3.00;93.30;;;;;;4997044;28;20064;-83
2021/01/17 01:41:31;;;;;;;24.00;15.55;;;-3.00;93.50;;;;;;4997016;28;20367;-84
2021/01/17 01:43:57;;;;;;;21.45;14.52;;;-2.90;93.60;;;;;;4996650;28;20098;-83
2021/01/17 01:46:25;;;;;;;23.33;15.25;;;-2.90;93.60;;;;;;4996862;28;20042;-84
2021/01/17 01:48:52;;;;;;;24.48;15.40;;;-2.80;93.70;;;;;;4996805;28;20469;-84
2021/01/17 01:51:19;;;;;;;25.52;15.48;;;-2.80;93.60;;;;;;4996379;28;20046;-85
2021/01/17 01:53:45;;;;;;;22.27;14.70;;;-2.80;93.60;;;;;;4997103;28;20057;-82
2021/01/17 01:56:14;;;;;;;22.05;14.55;;;-2.80;93.30;;;;;;4996823;28;20034;-84
2021/01/17 01:58:42;;;;;;;23.33;14.75;;;-2.80;93.40;;;;;;4996825;28;20470;-83
2021/01/17 02:01:08;;;;;;;21.35;14.32;;;-2.80;93.30;;;;;;4996736;28;20436;-83
2021/01/17 02:03:34;;;;;;;22.08;13.77;;;-2.70;93.30;;;;;;4996956;28;20450;-83
2021/01/17 02:06:01;;;;;;;20.80;13.30;;;-2.70;93.30;;;;;;4996570;28;20034;-84
2021/01/17 02:08:35;;;;;;;21.27;13.80;;;-2.70;92.90;;;;;;4997665;28;20109;-83
2021/01/17 02:11:10;;;;;;;22.63;14.95;;;-2.80;93.20;;;;;;4996577;28;20027;-82
2021/01/17 02:13:39;;;;;;;15.48;10.75;;;-2.80;93.30;;;;;;4996501;28;20026;-84
2021/01/17 02:16:07;;;;;;;22.10;14.15;;;-2.70;93.40;;;;;;4996541;28;20038;-83
2021/01/17 02:18:39;;;;;;;22.58;14.13;;;-2.70;93.20;;;;;;4996302;28;20033;-84
2021/01/17 02:21:07;;;;;;;20.48;13.90;;;-2.70;93.40;;;;;;4995876;28;20029;-84
2021/01/17 02:23:41;;;;;;;21.85;14.30;;;-2.70;93.30;;;;;;4996141;28;20026;-84
2021/01/17 02:26:10;;;;;;;20.92;13.07;;;-2.70;93.20;;;;;;4996587;28;20060;-84
2021/01/17 02:28:37;;;;;;;20.02;12.65;;;-2.70;93.20;;;;;;4996112;28;20050;-84
2021/01/17 02:31:04;;;;;;;19.10;12.63;;;-2.70;93.50;;;;;;4996462;28;20121;-83
2021/01/17 02:33:36;;;;;;;17.77;11.50;;;-2.70;93.70;;;;;;4996158;28;20065;-83
2021/01/17 02:36:21;;;;;;;19.02;11.95;;;-2.70;93.70;;;;;;4996110;28;20060;-84
2021/01/17 02:39:10;;;;;;;16.38;9.52;;;-2.80;93.90;;;;;;4996023;28;20022;-84
2021/01/17 02:41:59;;;;;;;16.95;11.00;;;-2.90;94.00;;;;;;4996918;28;20054;-84
2021/01/17 02:44:30;;;;;;;17.73;11.10;;;-2.90;94.10;;;;;;4999780;28;20032;-85
2021/01/17 02:46:56;;;;;;;18.65;11.82;;;-3.00;94.40;;;;;;5000402;28;20030;-84
2021/01/17 02:49:22;;;;;;;17.60;11.73;;;-2.90;94.40;;;;;;5000087;28;20022;-85
2021/01/17 02:51:48;;;;;;;15.68;10.77;;;-3.00;94.10;;;;;;4999030;28;20084;-83
2021/01/17 02:54:38;;;;;;;17.42;11.27;;;-3.00;94.10;;;;;;5000121;28;20029;-85
2021/01/17 02:57:09;;;;;;;18.38;11.20;;;-3.00;94.20;;;;;;4999465;28;20092;-84
2021/01/17 02:59:57;;;;;;;16.35;11.43;;;-3.00;94.40;;;;;;4999828;28;20026;-85
2021/01/17 03:02:27;;;;;;;19.73;11.85;;;-2.90;94.40;;;;;;4984255;28;20018;-83
2021/01/17 03:05:01;;;;;;;19.50;11.43;;;-3.00;94.50;;;;;;5000914;28;20030;-82
2021/01/17 03:07:30;;;;;;;15.88;11.02;;;-3.00;94.40;;;;;;4999677;28;20018;-83
2021/01/17 03:09:56;;;;;;;18.10;11.52;;;-3.00;94.40;;;;;;4999483;28;20030;-84
2021/01/17 03:12:22;;;;;;;17.00;11.05;;;-2.90;94.20;;;;;;4999570;28;20022;-83
2021/01/17 03:14:50;;;;;;;17.23;11.43;;;-3.00;93.80;;;;;;4999459;28;20510;-84
2021/01/17 03:17:16;;;;;;;19.63;12.82;;;-3.00;93.90;;;;;;4999369;28;20077;-83
2021/01/17 03:19:42;;;;;;;15.48;11.00;;;-3.00;93.80;;;;;;4999646;28;20378;-83
2021/01/17 03:22:08;;;;;;;17.40;11.65;;;-3.00;93.90;;;;;;4998729;28;20057;-85
2021/01/17 03:24:33;;;;;;;18.67;11.50;;;-3.00;93.70;;;;;;4999454;28;20026;-83
2021/01/17 03:26:59;;;;;;;18.20;10.98;;;-3.00;93.90;;;;;;4999818;28;20022;-82
2021/01/17 03:29:25;;;;;;;18.80;11.50;;;-3.10;94.00;;;;;;4999427;28;20023;-85
2021/01/17 03:31:51;;;;;;;16.35;11.48;;;-3.10;94.10;;;;;;4999274;28;20121;-82
2021/01/17 03:34:16;;;;;;;17.00;11.15;;;-3.10;94.20;;;;;;4999440;28;20034;-83
2021/01/17 03:36:42;;;;;;;18.63;11.30;;;-3.10;94.10;;;;;;4998414;28;20041;-84
2021/01/17 03:39:08;;;;;;;18.17;11.55;;;-3.00;93.60;;;;;;4998809;28;20030;-83
2021/01/17 03:41:33;;;;;;;18.50;11.80;;;-3.10;93.80;;;;;;4998551;28;20026;-83
2021/01/17 03:43:59;;;;;;;15.48;10.63;;;-3.10;93.80;;;;;;4998179;28;20026;-84
2021/01/17 03:46:27;;;;;;;19.00;11.70;;;-3.10;93.90;;;;;;4998450;28;20030;-84
2021/01/17 03:48:54;;;;;;;22.13;11.85;;;-3.20;93.90;;;;;;4998615;28;20054;-83
2021/01/17 03:51:20;;;;;;;18.65;11.50;;;-3.20;94.10;;;;;;4998540;28;20154;-84
2021/01/17 03:53:45;;;;;;;19.42;11.80;;;-3.20;94.40;;;;;;4999134;28;20038;-85
2021/01/17 03:56:11;;;;;;;20.40;12.02;;;-3.20;94.40;;;;;;4998247;28;20061;-83
2021/01/17 03:58:36;;;;;;;18.83;12.25;;;-3.20;94.30;;;;;;4998807;28;20027;-85
2021/01/17 04:01:02;;;;;;;18.25;11.98;;;-3.20;94.30;;;;;;4998265;28;20120;-83
2021/01/17 04:03:28;;;;;;;17.83;11.68;;;-3.20;94.50;;;;;;4999294;28;20030;-83
2021/01/17 04:05:53;;;;;;;17.70;11.25;;;-3.20;94.40;;;;;;4998356;28;20035;-83
2021/01/17 04:08:19;;;;;;;19.08;11.10;;;-3.10;94.20;;;;;;4998528;28;20386;-82
2021/01/17 04:10:44;;;;;;;17.70;11.27;;;-3.20;94.10;;;;;;4998509;28;20080;-83
2021/01/17 04:13:10;;;;;;;17.75;12.10;;;-3.20;94.20;;;;;;4997838;28;20099;-83
2021/01/17 04:15:36;;;;;;;17.17;11.52;;;-3.10;94.50;;;;;;4998176;28;20045;-83
2021/01/17 04:18:01;;;;;;;18.02;12.07;;;-3.20;94.40;;;;;;4998416;28;20508;-83
2021/01/17 04:20:27;;;;;;;20.58;12.00;;;-3.20;94.30;;;;;;4997953;28;20034;-84
2021/01/17 04:22:53;;;;;;;19.42;12.00;;;-3.20;94.40;;;;;;4998026;28;20026;-83
2021/01/17 04:25:19;;;;;;;20.42;12.20;;;-3.20;94.60;;;;;;4997869;28;20429;-84
2021/01/17 04:27:45;;;;;;;19.73;12.23;;;-3.20;94.50;;;;;;4998910;28;20068;-82
2021/01/17 04:30:11;;;;;;;16.58;10.60;;;-3.20;94.30;;;;;;4997573;28;20121;-82
2021/01/17 04:32:40;;;;;;;19.13;12.45;;;-3.20;94.10;;;;;;4998421;28;20023;-82
2021/01/17 04:35:06;;;;;;;19.55;11.63;;;-3.20;94.30;;;;;;4997447;28;20170;-83
2021/01/17 04:37:32;;;;;;;21.27;12.15;;;-3.20;94.30;;;;;;4997468;28;20113;-83
2021/01/17 04:39:57;;;;;;;17.35;11.60;;;-3.10;94.60;;;;;;4997685;28;20058;-84
2021/01/17 04:42:24;;;;;;;20.38;12.75;;;-3.10;94.70;;;;;;4997913;28;20046;-83
2021/01/17 04:44:52;;;;;;;19.73;12.48;;;-3.10;94.60;;;;;;4997256;28;20425;-83
2021/01/17 04:47:20;;;;;;;18.55;11.68;;;-3.00;94.50;;;;;;4997299;28;20230;-84
2021/01/17 04:49:51;;;;;;;17.00;12.13;;;-3.00;94.40;;;;;;4996819;28;20026;-83
2021/01/17 04:52:20;;;;;;;18.85;11.82;;;-3.00;94.20;;;;;;4996559;28;20043;-83
2021/01/17 04:54:46;;;;;;;20.63;12.30;;;-3.00;94.20;;;;;;4997197;28;20023;-85
2021/01/17 04:57:26;;;;;;;17.55;11.90;;;-3.10;94.10;;;;;;4998013;28;20547;-84
2021/01/17 05:00:07;;;;;;;18.80;12.48;;;-3.10;94.20;;;;;;4997121;28;20032;-83
2021/01/17 05:02:39;;;;;;;21.75;13.07;;;-3.10;94.00;;;;;;4997033;28;20192;-82
2021/01/17 05:05:21;;;;;;;17.50;12.10;;;-3.10;94.10;;;;;;4996612;28;20054;-83
2021/01/17 05:08:07;;;;;;;20.77;12.30;;;-3.10;94.30;;;;;;4996691;28;20034;-84
2021/01/17 05:10:35;;;;;;;19.23;12.18;;;-3.10;94.10;;;;;;4986638;28;20030;-84
2021/01/17 05:13:12;;;;;;;18.15;12.57;;;-3.10;94.20;;;;;;4998103;28;20540;-83
2021/01/17 05:15:40;;;;;;;19.23;12.55;;;-3.00;94.20;;;;;;4996567;28;20457;-83
2021/01/17 05:18:06;;;;;;;18.70;12.48;;;-3.00;94.20;;;;;;4996892;28;20080;-83
2021/01/17 05:20:32;;;;;;;19.92;11.82;;;-3.00;94.00;;;;;;4996950;28;20031;-83
2021/01/17 05:22:58;;;;;;;20.58;12.27;;;-3.20;94.10;;;;;;4997206;28;20030;-83
2021/01/17 05:25:28;;;;;;;20.50;12.35;;;-3.20;94.40;;;;;;4996207;28;20027;-84
2021/01/17 05:27:55;;;;;;;19.38;12.30;;;-3.20;94.60;;;;;;4996587;28;20031;-83
2021/01/17 05:30:21;;;;;;;20.83;12.43;;;-3.20;94.60;;;;;;4996851;28;20478;-83
2021/01/17 05:33:07;;;;;;;21.48;12.93;;;-3.20;94.50;;;;;;4996540;28;20034;-83
2021/01/17 05:35:33;;;;;;;18.98;12.48;;;-3.10;94.40;;;;;;4995183;28;20070;-82
2021/01/17 05:37:59;;;;;;;21.38;13.18;;;-3.10;94.40;;;;;;4997544;28;20489;-84
2021/01/17 05:40:24;;;;;;;22.45;13.70;;;-3.00;94.20;;;;;;4996469;28;20018;-83
2021/01/17 05:42:50;;;;;;;22.98;14.00;;;-3.10;94.00;;;;;;4996552;28;20066;-83
2021/01/17 05:45:23;;;;;;;21.95;13.60;;;-3.10;94.00;;;;;;4996572;28;20030;-83
2021/01/17 05:47:57;;;;;;;20.52;13.05;;;-3.20;94.40;;;;;;4997515;28;20057;-83
2021/01/17 05:50:24;;;;;;;22.38;13.85;;;-3.20;94.70;;;;;;4995981;28;20038;-84
2021/01/17 05:52:54;;;;;;;21.15;13.48;;;-3.10;94.70;;;;;;4996238;28;20072;-84
2021/01/17 05:55:32;;;;;;;20.90;14.05;;;-3.10;94.10;;;;;;4997418;28;20038;-83
2021/01/17 05:58:22;;;;;;;20.98;12.93;;;-3.10;94.50;;;;;;4996036;28;20030;-84
2021/01/17 06:00:48;;;;;;;20.08;12.43;;;-3.10;94.20;;;;;;4987939;28;20470;-85
2021/01/17 06:03:20;;;;;;;20.92;13.27;;;-3.10;94.20;;;;;;4996357;28;20026;-83
2021/01/17 06:05:49;;;;;;;20.83;13.32;;;-3.10;94.10;;;;;;4996638;28;20027;-84
2021/01/17 06:08:18;;;;;;;18.00;13.23;;;-3.10;94.20;;;;;;4996682;28;20019;-83
2021/01/17 06:10:47;;;;;;;21.38;12.63;;;-3.00;94.10;;;;;;4996435;28;20030;-83
2021/01/17 06:13:23;;;;;;;20.98;12.70;;;-3.00;93.90;;;;;;4996573;28;20084;-84
2021/01/17 06:15:49;;;;;;;20.50;13.00;;;-3.10;93.90;;;;;;4995897;28;20057;-83
2021/01/17 06:18:21;;;;;;;19.15;12.68;;;-3.10;94.30;;;;;;4996074;28;20022;-83
2021/01/17 06:20:47;;;;;;;24.48;15.70;;;-3.10;94.30;;;;;;4996347;28;20030;-83
2021/01/17 06:23:20;;;;;;;24.85;16.02;;;-3.10;94.30;;;;;;4995793;28;20033;-84
2021/01/17 06:25:46;;;;;;;21.55;13.57;;;-3.00;94.00;;;;;;4996004;28;20030;-84
2021/01/17 06:28:14;;;;;;;21.65;12.60;;;-3.00;93.80;;;;;;4996524;28;20030;-83
2021/01/17 06:30:41;;;;;;;20.55;12.55;;;-3.00;93.70;;;;;;4996311;28;20170;-83
2021/01/17 06:33:07;;;;;;;19.52;12.57;;;-2.90;93.70;;;;;;4996047;28;20071;-84
2021/01/17 06:35:38;;;;;;;22.02;13.27;;;-3.00;93.80;;;;;;4996003;28;20474;-83
2021/01/17 06:38:19;;;;;;;22.05;12.57;;;-3.00;93.70;;;;;;4996022;28;20026;-83
2021/01/17 06:40:47;;;;;;;20.92;13.70;;;-3.00;93.70;;;;;;4996096;28;20378;-83
2021/01/17 06:43:13;;;;;;;19.42;12.45;;;-3.00;93.70;;;;;;4996333;28;20054;-84
2021/01/17 06:45:45;;;;;;;26.50;14.63;;;-3.00;93.60;;;;;;4997385;28;20106;-84
2021/01/17 06:48:29;;;;;;;54.22;32.03;;;-3.00;93.60;;;;;;4996882;28;20026;-82
2021/01/17 06:51:18;;;;;;;39.50;23.92;;;-3.00;93.50;;;;;;4996080;28;20502;-84
2021/01/17 06:53:55;;;;;;;29.98;19.73;;;-3.00;93.40;;;;;;4996235;28;20446;-83
2021/01/17 06:56:21;;;;;;;30.00;18.58;;;-2.10;99.90;;;;;;4997553;28;20038;-84
2021/01/17 06:58:50;;;;;;;38.38;23.33;;;-2.20;98.30;;;;;;5000079;28;20026;-82
2021/01/17 07:01:23;;;;;;;22.27;15.82;;;-2.40;92.20;;;;;;4997090;28;20069;-82
2021/01/17 07:04:07;;;;;;;24.40;15.75;;;-2.50;91.80;;;;;;4999509;28;20027;-83
2021/01/17 07:07:08;;;;;;;24.38;16.10;;;-2.60;92.30;;;;;;4996203;28;20493;-83
2021/01/17 07:09:58;;;;;;;25.23;16.23;;;-2.70;92.70;;;;;;4994747;28;20026;-83
2021/01/17 07:12:40;;;;;;;24.48;16.45;;;-2.70;92.40;;;;;;4995322;28;20025;-83
2021/01/17 07:15:11;;;;;;;24.73;16.00;;;-2.80;92.70;;;;;;4995040;28;20356;-83
2021/01/17 07:17:41;;;;;;;28.63;18.35;;;-2.80;92.70;;;;;;4995861;28;20474;-85
2021/01/17 07:20:14;;;;;;;28.23;17.67;;;-2.80;93.00;;;;;;4996116;28;20022;-83
2021/01/17 07:22:44;;;;;;;31.67;19.58;;;-2.80;92.80;;;;;;4995750;28;20026;-83
2021/01/17 07:25:12;;;;;;;28.50;17.48;;;-2.70;92.40;;;;;;4995661;28;20022;-83
2021/01/17 07:27:43;;;;;;;29.35;18.42;;;-2.70;92.60;;;;;;4996411;28;20033;-84
2021/01/17 07:30:18;;;;;;;32.28;23.10;;;-2.70;92.30;;;;;;4999193;28;20031;-85
2021/01/17 07:32:53;;;;;;;24.98;16.13;;;-2.70;93.10;;;;;;4999006;28;20034;-82
2021/01/17 07:35:24;;;;;;;27.48;15.75;;;-2.60;92.20;;;;;;4999201;28;20377;-83
2021/01/17 07:37:54;;;;;;;22.00;15.15;;;-2.60;92.00;;;;;;4998967;28;20031;-82
2021/01/17 07:43:09;;;;;;;30.52;18.98;;;-2.50;92.00;;;;;;5000852;28;20404;-83
2021/01/17 07:45:40;;;;;;;26.45;17.42;;;-2.50;92.30;;;;;;4998992;28;20530;-83
2021/01/17 07:48:10;;;;;;;25.98;16.73;;;-2.50;92.00;;;;;;4998909;28;20023;-85
2021/01/17 07:50:38;;;;;;;26.20;15.77;;;-2.40;90.90;;;;;;4998263;28;20031;-83
2021/01/17 07:53:12;;;;;;;27.52;15.63;;;-2.40;91.50;;;;;;4998658;28;20035;-83
2021/01/17 07:55:40;;;;;;;22.80;15.93;;;-2.30;91.50;;;;;;4997969;28;20061;-83
2021/01/17 07:58:09;;;;;;;33.28;19.98;;;-2.30;90.80;;;;;;4998894;28;20034;-83
2021/01/17 08:00:42;;;;;;;30.00;17.40;;;-2.40;91.10;;;;;;4998779;28;20553;-84
2021/01/17 08:03:08;;;;;;;25.85;17.23;;;-2.40;91.10;;;;;;4999275;28;20054;-83
2021/01/17 08:05:54;;;;;;;28.55;18.90;;;-2.50;91.20;;;;;;4998636;28;20022;-83
2021/01/17 08:08:34;;;;;;;25.30;16.85;;;-2.40;90.90;;;;;;4999509;28;20046;-84
2021/01/17 08:11:04;;;;;;;28.77;17.67;;;-2.40;90.10;;;;;;4998396;28;20026;-83
2021/01/17 08:13:32;;;;;;;24.42;16.13;;;-2.40;90.40;;;;;;4998924;28;20040;-84
2021/01/17 08:16:12;;;;;;;26.10;15.95;;;-2.30;89.30;;;;;;4999697;28;20038;-83
2021/01/17 08:18:39;;;;;;;26.92;17.38;;;-2.10;88.20;;;;;;4997971;28;20112;-83
2021/01/17 08:21:20;;;;;;;28.70;18.45;;;-2.10;87.30;;;;;;4997803;28;20022;-83
2021/01/17 08:24:13;;;;;;;29.88;18.08;;;-2.20;87.20;;;;;;4997836;28;20034;-84
2021/01/17 08:27:08;;;;;;;26.23;16.60;;;-2.30;87.20;;;;;;4997485;28;20027;-84
2021/01/17 08:30:06;;;;;;;29.17;18.10;;;-2.20;87.70;;;;;;4981292;28;20443;-82
2021/01/17 08:32:38;;;;;;;28.23;18.30;;;-2.30;88.10;;;;;;4998076;28;20029;-85
2021/01/17 08:35:24;;;;;;;28.25;16.85;;;-2.40;89.10;;;;;;4998359;28;20029;-83
2021/01/17 08:37:50;;;;;;;;;;;-2.40;88.10;;;;;;4988321;28;20100;-83
2021/01/17 08:40:18;;;;;;;29.75;17.17;;;-2.40;88.60;;;;;;4997964;28;19905;-83
2021/01/17 08:43:01;;;;;;;31.35;19.40;;;-2.50;88.90;;;;;;4998122;28;20022;-85
2021/01/17 08:45:26;;;;;;;28.70;18.27;;;-2.50;89.00;;;;;;4998659;28;20478;-83
2021/01/17 08:48:01;;;;;;;28.52;17.75;;;-2.40;89.80;;;;;;4998952;28;20037;-83
2021/01/17 08:50:37;;;;;;;28.33;18.13;;;-2.50;88.90;;;;;;4998698;28;20069;-82
2021/01/17 08:53:21;;;;;;;27.63;17.98;;;-2.50;89.60;;;;;;4998135;28;20062;-84
2021/01/17 08:55:52;;;;;;;26.73;17.25;;;-2.40;89.60;;;;;;4998400;28;20058;-83
2021/01/17 08:58:27;;;;;;;29.73;18.77;;;-2.40;89.20;;;;;;4998844;28;20081;-83
2021/01/17 09:00:52;;;;;;;28.90;18.67;;;-2.40;88.90;;;;;;4997760;28;20045;-84
2021/01/17 09:03:43;;;;;;;28.05;17.48;;;-2.50;89.70;;;;;;4997530;28;20300;-84
2021/01/17 09:06:12;;;;;;;30.67;17.98;;;-2.50;89.90;;;;;;4997697;28;20023;-84
2021/01/17 09:08:40;;;;;;;25.95;16.95;;;-2.40;89.60;;;;;;4997445;28;20058;-84
2021/01/17 09:11:24;;;;;;;30.20;18.23;;;-2.30;88.50;;;;;;4997442;28;20105;-81
2021/01/17 09:14:28;;;;;;;25.30;16.38;;;-2.20;88.10;;;;;;4995281;28;20421;-79
2021/01/17 09:17:12;;;;;;;28.13;17.17;;;-2.10;86.80;;;;;;4994552;28;20124;-81
2021/01/17 09:19:38;;;;;;;33.50;19.13;;;-2.10;86.00;;;;;;4994512;28;20381;-82
2021/01/17 09:22:06;;;;;;;27.08;17.75;;;-2.10;86.10;;;;;;4994727;28;20026;-82
2021/01/17 09:24:38;;;;;;;26.40;17.55;;;-2.00;86.20;;;;;;4994001;28;20478;-81
2021/01/17 09:27:06;;;;;;;25.38;16.45;;;-1.90;86.30;;;;;;4994573;28;20068;-81
2021/01/17 09:29:41;;;;;;;25.67;17.20;;;-1.80;86.20;;;;;;4994938;28;20118;-78
2021/01/17 09:32:15;;;;;;;25.73;16.80;;;-1.70;85.70;;;;;;4996195;28;20109;-81
2021/01/17 09:34:43;;;;;;;24.25;16.15;;;-1.70;83.80;;;;;;4995460;28;20044;-79
2021/01/17 09:37:14;;;;;;;26.23;16.77;;;-1.70;84.30;;;;;;4993342;28;20482;-79
2021/01/17 09:39:45;;;;;;;26.50;16.85;;;-1.60;82.20;;;;;;4994061;28;20026;-78
2021/01/17 09:42:13;;;;;;;25.00;16.13;;;-1.70;81.70;;;;;;4993983;28;20386;-79
2021/01/17 09:44:40;;;;;;;25.15;16.88;;;-1.80;83.80;;;;;;4993374;28;20030;-73
2021/01/17 09:47:20;;;;;;;26.42;17.38;;;-1.70;83.50;;;;;;4993521;28;20027;-74
2021/01/17 09:49:47;;;;;;;28.85;17.63;;;-1.80;84.50;;;;;;4994045;28;20446;-81
2021/01/17 09:52:24;;;;;;;26.67;17.25;;;-1.80;85.10;;;;;;4992586;28;20100;-78
2021/01/17 09:54:54;;;;;;;25.95;16.30;;;-1.70;85.10;;;;;;4994522;28;20034;-79
2021/01/17 09:57:24;;;;;;;33.22;19.98;;;-1.60;84.30;;;;;;4995283;28;20390;-82
2021/01/17 09:59:53;;;;;;;39.20;23.92;;;-1.50;84.40;;;;;;4993379;28;20048;-78
2021/01/17 10:02:20;;;;;;;27.95;18.85;;;-1.40;83.70;;;;;;4994530;28;20089;-79
2021/01/17 10:04:46;;;;;;;28.42;17.42;;;-1.50;83.40;;;;;;4994329;28;20027;-81
2021/01/17 10:07:30;;;;;;;26.30;17.40;;;-1.30;85.20;;;;;;4993365;28;20049;-81
2021/01/17 10:09:55;;;;;;;26.40;16.90;;;-1.30;84.40;;;;;;4994088;28;20026;-79
2021/01/17 10:12:24;;;;;;;28.05;18.40;;;-1.30;84.00;;;;;;4992983;28;20022;-79
2021/01/17 10:14:50;;;;;;;24.77;16.05;;;-1.10;82.80;;;;;;4995436;28;20018;-79
2021/01/17 10:17:16;;;;;;;25.98;17.00;;;-1.20;81.80;;;;;;4993114;28;20041;-80
2021/01/17 10:19:46;;;;;;;25.75;16.05;;;-1.20;82.40;;;;;;4995055;28;20077;-80
2021/01/17 10:22:14;;;;;;;24.50;16.58;;;-1.30;83.20;;;;;;4997579;28;20026;-79
2021/01/17 10:24:44;;;;;;;25.50;15.35;;;-1.30;85.00;;;;;;4996316;28;20126;-80
2021/01/17 10:27:19;;;;;;;23.65;15.70;;;-1.20;83.20;;;;;;4995011;28;20027;-79
2021/01/17 10:29:45;;;;;;;31.38;17.58;;;-1.30;81.00;;;;;;4998235;28;20029;-79
2021/01/17 10:32:13;;;;;;;24.42;14.70;;;-0.40;99.90;;;;;;4984716;28;20386;-81
2021/01/17 10:34:43;;;;;;;27.17;16.52;;;-0.50;80.90;;;;;;5001723;28;20054;-81
2021/01/17 10:37:10;;;;;;;23.33;16.48;;;-0.60;79.30;;;;;;5000668;28;20532;-84
2021/01/17 10:39:39;;;;;;;24.17;16.00;;;-0.10;80.50;;;;;;4997792;28;20414;-79
2021/01/17 10:42:33;;;;;;;24.95;16.30;;;-0.60;79.10;;;;;;4995573;28;20030;-81
2021/01/17 10:45:10;;;;;;;25.85;16.27;;;-0.80;81.00;;;;;;4994715;28;20089;-76
2021/01/17 10:47:38;;;;;;;23.10;15.77;;;-1.00;80.90;;;;;;4999576;28;20100;-77
2021/01/17 10:50:25;;;;;;;23.95;15.50;;;-0.90;81.50;;;;;;5000323;28;20030;-80
2021/01/17 10:52:54;;;;;;;27.27;17.75;;;-0.90;82.60;;;;;;4998750;28;20062;-77
2021/01/17 10:55:30;;;;;;;26.10;16.73;;;-1.00;80.50;;;;;;5001676;28;20054;-83
2021/01/17 10:57:56;;;;;;;26.58;16.40;;;-1.00;82.40;;;;;;4998850;28;20038;-75
2021/01/17 11:00:23;;;;;;;24.50;15.90;;;-0.90;81.90;;;;;;4995797;28;20027;-76
2021/01/17 11:03:19;;;;;;;24.40;15.48;;;-0.70;82.20;;;;;;4996706;28;20157;-80
2021/01/17 11:05:44;;;;;;;25.42;17.10;;;-0.70;79.20;;;;;;4997641;28;20496;-79
2021/01/17 11:08:13;;;;;;;25.60;16.67;;;-0.50;80.80;;;;;;4996826;28;20030;-82
2021/01/17 11:10:39;;;;;;;25.30;16.35;;;-0.40;79.30;;;;;;5000598;28;20396;-77
2021/01/17 11:13:15;;;;;;;22.33;14.35;;;-0.40;80.70;;;;;;5002006;28;20133;-82
2021/01/17 11:15:40;;;;;;;22.90;15.23;;;-0.40;75.00;;;;;;4998965;28;20102;-78
2021/01/17 11:18:07;;;;;;;25.35;15.27;;;-0.30;74.80;;;;;;5002995;28;20068;-79
2021/01/17 11:20:35;;;;;;;23.23;16.38;;;-0.30;75.30;;;;;;5001096;28;20084;-81
2021/01/17 11:23:03;;;;;;;21.63;14.18;;;-0.20;77.30;;;;;;5012634;28;20026;-79
2021/01/17 11:25:29;;;;;;;22.05;14.57;;;-0.10;77.30;;;;;;5020929;28;20028;-78
2021/01/17 11:28:23;;;;;;;24.73;17.25;;;0.00;77.90;;;;;;5017288;28;20034;-83
2021/01/17 11:30:49;;;;;;;19.30;13.48;;;0.00;75.20;;;;;;5019705;28;20018;-78
2021/01/17 11:33:14;;;;;;;22.63;14.07;;;0.10;74.50;;;;;;5018525;28;20085;-78
2021/01/17 11:35:41;;;;;;;26.42;17.40;;;0.00;76.00;;;;;;5017105;28;20112;-78
2021/01/17 11:38:09;;;;;;;20.50;13.50;;;0.00;77.40;;;;;;5016452;28;20034;-81
2021/01/17 11:40:36;;;;;;;23.38;14.65;;;-0.10;74.70;;;;;;5018321;28;20021;-76
2021/01/17 11:43:07;;;;;;;22.50;14.88;;;-0.10;76.50;;;;;;5015893;28;20036;-78
2021/01/17 11:45:46;;;;;;;25.33;16.83;;;0.00;77.30;;;;;;5016608;28;20121;-82
2021/01/17 11:48:12;;;;;;;23.90;16.70;;;0.10;78.10;;;;;;5021287;28;20033;-81
2021/01/17 11:50:44;;;;;;;23.73;15.55;;;0.20;78.80;;;;;;5017420;28;20042;-79
2021/01/17 11:53:12;;;;;;;19.85;13.68;;;0.20;76.80;;;;;;5017342;28;20065;-80
2021/01/17 11:55:38;;;;;;;22.48;15.45;;;0.10;77.10;;;;;;5019323;28;20520;-83
2021/01/17 11:58:08;;;;;;;24.88;15.15;;;0.10;77.60;;;;;;5017188;28;20080;-79
2021/01/17 12:00:54;;;;;;;24.65;14.77;;;0.20;78.60;;;;;;5015712;28;20022;-78
2021/01/17 12:03:35;;;;;;;20.73;13.32;;;0.10;76.30;;;;;;5016338;28;20037;-81
2021/01/17 12:06:12;;;;;;;20.30;13.23;;;0.00;76.30;;;;;;5016745;28;20058;-80
2021/01/17 12:09:22;;;;;;;21.92;14.77;;;0.10;76.60;;;;;;5015883;28;20076;-81
2021/01/17 12:11:49;;;;;;;20.27;12.25;;;0.10;75.90;;;;;;4999348;28;20046;-77
2021/01/17 12:14:19;;;;;;;23.70;13.57;;;0.20;75.40;;;;;;5015298;28;20022;-77
2021/01/17 12:16:50;;;;;;;20.85;13.85;;;0.20;74.70;;;;;;5015417;28;20092;-83
2021/01/17 12:19:17;;;;;;;19.30;13.02;;;0.40;76.00;;;;;;5016002;28;20052;-83
2021/01/17 12:21:44;;;;;;;19.05;13.60;;;0.20;75.10;;;;;;5014507;28;20473;-77
2021/01/17 12:24:14;;;;;;;20.02;13.32;;;0.20;75.60;;;;;;5013769;28;20405;-77
2021/01/17 12:26:42;;;;;;;19.85;13.00;;;0.00;75.70;;;;;;5014954;28;20025;-77
2021/01/17 12:29:09;;;;;;;20.30;13.23;;;0.10;76.00;;;;;;5017334;28;20018;-80
2021/01/17 12:31:35;;;;;;;20.27;13.23;;;0.10;76.70;;;;;;5018481;28;20037;-81
2021/01/17 12:34:01;;;;;;;23.20;15.52;;;0.00;76.00;;;;;;5015232;28;20026;-78
2021/01/17 12:36:28;;;;;;;19.13;12.02;;;0.10;78.30;;;;;;5014473;28;20391;-78
2021/01/17 12:38:56;;;;;;;18.38;12.13;;;0.00;74.60;;;;;;5014287;28;20030;-79
2021/01/17 12:41:24;;;;;;;19.27;12.82;;;-0.10;75.30;;;;;;5014873;28;20373;-78
2021/01/17 12:43:51;;;;;;;20.70;13.48;;;-0.10;76.50;;;;;;5013928;28;20136;-79
2021/01/17 12:46:17;;;;;;;18.35;12.57;;;-0.10;76.90;;;;;;5016774;28;20034;-85
2021/01/17 12:48:43;;;;;;;19.38;12.35;;;0.00;76.70;;;;;;5017367;28;20536;-84